Time;durP1;ratioP1;P1;durP2;ratioP2;P2;SDS_P1;SDS_P2;PMS_P1;PMS_P2;Temp;Humidity;BMP_temperature;BMP_pressure;BME280_temperature;BME280_humidity;BME280_pressure;Samples;Min_cycle;Max_cycle;Signal;HPM_P1;HPM_P2
2022/06/25 00:01:20;;;;;;;51.75;34.40;;;;;;;-145.67;100.00;66521.78;4967447;28;20058;-71
2022/06/25 00:03:46;;;;;;;53.30;33.83;;;;;;;-145.67;100.00;66521.78;4968681;28;20088;-72
2022/06/25 00:06:15;;;;;;;43.50;32.50;;;;;;;-145.67;100.00;66521.78;4949357;28;20464;-73
2022/06/25 00:08:41;;;;;;;41.80;31.58;;;;;;;-145.67;100.00;66521.78;4977133;28;20040;-72
2022/06/25 00:12:31;;;;;;;45.72;32.30;;;;;;;-145.67;100.00;66521.78;4970560;28;20305;-72
2022/06/25 00:13:53;;;;;;;48.17;32.00;;;;;;;-145.67;100.00;66521.78;4980597;28;20051;-71
2022/06/25 00:16:18;;;;;;;47.03;32.75;;;;;;;-145.67;100.00;66521.78;4967271;28;20611;-72
2022/06/25 00:18:46;;;;;;;39.75;29.00;;;;;;;-145.67;100.00;66521.78;4967111;28;20286;-73
2022/06/25 00:21:11;;;;;;;36.00;26.48;;;;;;;-145.67;100.00;66521.78;4970179;28;20057;-72
2022/06/25 00:23:37;;;;;;;39.90;27.88;;;;;;;-145.67;100.00;66521.78;4983340;28;20458;-72
2022/06/25 00:26:02;;;;;;;45.92;29.60;;;;;;;-145.67;100.00;66521.78;4968354;28;20029;-72
2022/06/25 00:28:27;;;;;;;41.03;27.67;;;;;;;-145.67;100.00;66521.78;4969524;28;20045;-71
2022/06/25 00:30:53;;;;;;;39.58;24.67;;;;;;;-145.67;100.00;66521.78;4975397;28;20217;-71
2022/06/25 00:33:19;;;;;;;39.85;23.70;;;;;;;-145.67;100.00;66521.78;4968202;28;20190;-72
2022/06/25 00:35:44;;;;;;;39.80;25.08;;;;;;;-145.67;100.00;66521.78;4967827;28;20034;-72
2022/06/25 00:38:10;;;;;;;43.70;24.17;;;;;;;-145.67;100.00;66521.78;4981780;28;20099;-72
2022/06/25 00:40:35;;;;;;;39.17;24.48;;;;;;;-145.67;100.00;66521.78;4969654;28;20057;-72
2022/06/25 00:43:01;;;;;;;42.65;23.33;;;;;;;-145.67;100.00;66521.78;4980688;28;20537;-72
2022/06/25 00:45:26;;;;;;;48.53;26.20;;;;;;;-145.67;100.00;66521.78;4965267;28;20526;-72
2022/06/25 00:47:52;;;;;;;48.70;26.25;;;;;;;-145.67;100.00;66521.78;4965872;28;20146;-72
2022/06/25 00:50:18;;;;;;;40.20;24.35;;;;;;;-145.67;100.00;66521.78;4967981;28;20045;-71
2022/06/25 00:52:48;;;;;;;33.25;23.58;;;;;;;-145.67;100.00;66521.78;4972823;28;20029;-71
2022/06/25 00:55:20;;;;;;;39.17;23.45;;;;;;;-145.67;100.00;66521.78;4981494;28;20083;-72
2022/06/25 00:57:49;;;;;;;38.72;24.55;;;;;;;-145.67;100.00;66521.78;4972318;28;20491;-71
2022/06/25 01:00:17;;;;;;;42.00;25.15;;;;;;;-145.67;100.00;66521.78;4967994;28;20246;-72
2022/06/25 01:02:45;;;;;;;43.25;25.85;;;;;;;-145.67;100.00;66521.78;4966276;28;20641;-73
2022/06/25 01:05:13;;;;;;;41.67;23.65;;;;;;;-145.67;100.00;66521.78;4977213;28;20108;-72
2022/06/25 01:07:46;;;;;;;35.13;23.00;;;;;;;-145.67;100.00;66521.78;4980871;28;20542;-72
2022/06/25 01:10:13;;;;;;;;;;;;;;;-145.67;100.00;66521.78;4982363;28;20064;-71
2022/06/25 01:12:39;;;;;;;39.95;23.25;;;;;;;-145.67;100.00;66521.78;4970500;28;20162;-73
2022/06/25 01:15:10;;;;;;;42.72;23.60;;;;;;;-145.67;100.00;66521.78;4973126;28;20434;-72
2022/06/25 01:18:09;;;;;;;40.05;24.15;;;;;;;-145.67;100.00;66521.78;4970400;28;20033;-72
2022/06/25 01:20:34;;;;;;;41.88;24.40;;;;;;;-145.67;100.00;66521.78;4961392;28;20037;-72
2022/06/25 01:23:00;;;;;;;37.85;22.67;;;;;;;-145.67;100.00;66521.78;4970877;28;20444;-72
2022/06/25 01:25:32;;;;;;;36.95;21.02;;;;;;;-145.67;100.00;66521.78;4971083;28;20068;-71
2022/06/25 01:27:58;;;;;;;35.53;21.52;;;;;;;-145.67;100.00;66521.78;4971033;28;20045;-71
2022/06/25 01:30:26;;;;;;;35.38;20.15;;;;;;;-145.67;100.00;66521.78;4969900;28;20479;-72
2022/06/25 01:32:52;;;;;;;34.60;20.52;;;;;;;-145.67;100.00;66521.78;4971362;28;20437;-71
2022/06/25 01:35:18;;;;;;;30.10;19.40;;;;;;;-145.67;100.00;66521.78;4968554;28;20109;-73
2022/06/25 01:37:44;;;;;;;29.10;18.73;;;;;;;-145.67;100.00;66521.78;4947420;28;20769;-73
2022/06/25 01:40:10;;;;;;;33.88;19.13;;;;;;;-145.67;100.00;66521.78;4970247;28;20314;-72
2022/06/25 01:45:20;;;;;;;34.85;20.13;;;;;;;-145.67;100.00;66521.78;4968928;28;20052;-73
2022/06/25 01:47:46;;;;;;;33.45;19.75;;;;;;;-145.67;100.00;66521.78;4969640;28;20041;-73
2022/06/25 01:50:12;;;;;;;34.25;20.23;;;;;;;-145.67;100.00;66521.78;4963067;28;20041;-72
2022/06/25 01:52:38;;;;;;;34.47;19.10;;;;;;;-145.67;100.00;66521.78;4947397;28;20052;-72
2022/06/25 01:55:04;;;;;;;36.00;19.88;;;;;;;-145.67;100.00;66521.78;4945965;28;20038;-71
2022/06/25 01:57:30;;;;;;;29.90;17.67;;;;;;;-145.67;100.00;66521.78;4945720;28;20053;-71
2022/06/25 01:59:56;;;;;;;29.35;19.27;;;;;;;-145.67;100.00;66521.78;4943110;28;20045;-72
2022/06/25 02:02:22;;;;;;;25.50;18.23;;;;;;;-145.67;100.00;66521.78;4966773;28;20053;-71
2022/06/25 02:04:47;;;;;;;28.15;18.52;;;;;;;-145.67;100.00;66521.78;4958992;28;20030;-72
2022/06/25 02:07:13;;;;;;;32.72;19.52;;;;;;;-145.67;100.00;66521.78;4961111;28;20050;-71
2022/06/25 02:09:38;;;;;;;25.50;17.17;;;;;;;-145.67;100.00;66521.78;4960119;28;20213;-71
2022/06/25 02:12:07;;;;;;;26.38;17.10;;;;;;;-145.67;100.00;66521.78;4952497;28;20026;-71
2022/06/25 02:14:37;;;;;;;26.85;17.65;;;;;;;-145.67;100.00;66521.78;4947849;28;20563;-72
2022/06/25 02:17:03;;;;;;;31.92;18.77;;;;;;;-145.67;100.00;66521.78;4973216;28;20042;-72
2022/06/25 02:19:30;;;;;;;29.00;18.45;;;;;;;-145.67;100.00;66521.78;4961219;28;20038;-72
2022/06/25 02:21:56;;;;;;;28.85;18.10;;;;;;;-145.67;100.00;66521.78;4968967;28;20343;-71
2022/06/25 02:24:22;;;;;;;34.63;18.95;;;;;;;-145.67;100.00;66521.78;4961434;28;20374;-71
2022/06/25 02:26:47;;;;;;;39.90;20.30;;;;;;;-145.67;100.00;66521.78;4974157;28;20663;-71
2022/06/25 02:29:12;;;;;;;38.22;21.08;;;;;;;-145.67;100.00;66521.78;4954853;28;20928;-70
2022/06/25 02:31:38;;;;;;;35.28;19.45;;;;;;;-145.67;100.00;66521.78;4969504;28;20137;-71
2022/06/25 02:34:03;;;;;;;34.58;21.17;;;;;;;-145.67;100.00;66521.78;4963760;28;20037;-71
2022/06/25 02:36:29;;;;;;;41.92;22.85;;;;;;;-145.67;100.00;66521.78;4967803;28;20588;-72
2022/06/25 02:38:54;;;;;;;35.20;20.08;;;;;;;-145.67;100.00;66521.78;4965741;28;20115;-72
2022/06/25 02:41:20;;;;;;;33.58;19.52;;;;;;;-145.67;100.00;66521.78;4985155;28;20717;-72
2022/06/25 02:43:47;;;;;;;41.00;22.02;;;;;;;-145.67;100.00;66521.78;4977390;28;20065;-71
2022/06/25 02:46:13;;;;;;;38.67;22.50;;;;;;;-145.67;100.00;66521.78;4977493;28;22537;-72
2022/06/25 02:48:38;;;;;;;39.60;23.83;;;;;;;-145.67;100.00;66521.78;4967191;28;20030;-72
2022/06/25 02:51:04;;;;;;;36.85;22.30;;;;;;;-145.67;100.00;66521.78;4969457;28;20521;-73
2022/06/25 02:53:30;;;;;;;42.17;22.65;;;;;;;-145.67;100.00;66521.78;4959056;28;20034;-72
2022/06/25 02:58:55;;;;;;;30.77;20.67;;;;;;;-145.67;100.00;66521.78;4969342;28;20065;-72
2022/06/25 03:01:24;;;;;;;29.40;19.65;;;;;;;-145.67;100.00;66521.78;4970980;28;20049;-71
2022/06/25 03:03:51;;;;;;;32.60;20.95;;;;;;;-145.67;100.00;66521.78;4977416;28;20107;-72
2022/06/25 03:06:16;;;;;;;33.90;21.10;;;;;;;-145.67;100.00;66521.78;4967382;28;20117;-73
2022/06/25 03:08:42;;;;;;;31.35;19.90;;;;;;;-145.67;100.00;66521.78;4968967;28;20147;-72
2022/06/25 03:11:10;;;;;;;27.63;18.55;;;;;;;-145.67;100.00;66521.78;4969401;28;20026;-73
2022/06/25 03:13:36;;;;;;;35.65;21.20;;;;;;;-145.67;100.00;66521.78;4969649;28;20359;-72
2022/06/25 03:16:05;;;;;;;34.47;20.30;;;;;;;-145.67;100.00;66521.78;4969059;28;21205;-71
2022/06/25 03:18:32;;;;;;;30.05;19.52;;;;;;;-145.67;100.00;66521.78;4968279;28;20191;-72
2022/06/25 03:20:58;;;;;;;32.20;19.15;;;;;;;-145.67;100.00;66521.78;4959176;28;21580;-72
2022/06/25 03:23:23;;;;;;;34.75;20.40;;;;;;;-145.67;100.00;66521.78;4949764;28;20034;-71
2022/06/25 03:25:49;;;;;;;36.53;20.90;;;;;;;-145.67;100.00;66521.78;4953562;28;20121;-71
2022/06/25 03:28:15;;;;;;;34.90;19.15;;;;;;;-145.67;100.00;66521.78;4948433;28;20457;-71
2022/06/25 03:30:41;;;;;;;41.30;21.40;;;;;;;-145.67;100.00;66521.78;4949889;28;20272;-72
2022/06/25 03:33:06;;;;;;;41.88;23.20;;;;;;;-145.67;100.00;66521.78;4949014;28;20176;-71
2022/06/25 03:35:32;;;;;;;42.72;22.88;;;;;;;-145.67;100.00;66521.78;4963141;28;20053;-71
2022/06/25 03:37:57;;;;;;;42.30;24.30;;;;;;;-145.67;100.00;66521.78;4950687;28;20169;-71
2022/06/25 03:40:23;;;;;;;38.03;22.25;;;;;;;-145.67;100.00;66521.78;4948475;28;20573;-71
2022/06/25 03:42:49;;;;;;;44.63;24.08;;;;;;;-145.67;100.00;66521.78;4962626;28;20066;-73
2022/06/25 03:45:15;;;;;;;40.33;21.50;;;;;;;-145.67;100.00;66521.78;4949196;28;20072;-71
2022/06/25 03:47:41;;;;;;;35.33;19.27;;;;;;;-145.67;100.00;66521.78;4952581;28;20053;-70
2022/06/25 03:50:07;;;;;;;33.75;19.45;;;;;;;-145.67;100.00;66521.78;4963138;28;20399;-72
2022/06/25 03:52:33;;;;;;;39.35;19.70;;;;;;;-145.67;100.00;66521.78;4964910;28;22466;-71
2022/06/25 03:55:01;;;;;;;37.38;19.80;;;;;;;-145.67;100.00;66521.78;4976669;28;20045;-71
2022/06/25 03:57:29;;;;;;;40.50;19.25;;;;;;;-145.67;100.00;66521.78;4977320;28;20118;-71
2022/06/25 03:59:55;;;;;;;31.15;17.95;;;;;;;-145.67;100.00;66521.78;4983264;28;20167;-71
2022/06/25 04:02:20;;;;;;;34.67;15.80;;;;;;;-145.67;100.00;66521.78;4959030;28;20129;-72
2022/06/25 04:04:46;;;;;;;32.67;16.48;;;;;;;-145.67;100.00;66521.78;4983009;28;20427;-72
2022/06/25 04:07:11;;;;;;;30.60;14.77;;;;;;;-145.67;100.00;66521.78;4963384;28;20035;-72
2022/06/25 04:09:39;;;;;;;26.65;14.93;;;;;;;-145.67;100.00;66521.78;4963812;28;20597;-72
2022/06/25 04:12:05;;;;;;;26.70;12.73;;;;;;;-145.67;100.00;66521.78;4953346;28;20056;-73
2022/06/25 04:14:33;;;;;;;24.73;12.30;;;;;;;-145.67;100.00;66521.78;4956508;28;20405;-72
2022/06/25 04:16:59;;;;;;;31.10;14.40;;;;;;;-145.67;100.00;66521.78;4968429;28;20381;-72
2022/06/25 04:19:24;;;;;;;31.15;14.05;;;;;;;-145.67;100.00;66521.78;4972905;28;20030;-72
2022/06/25 04:21:51;;;;;;;28.80;14.07;;;;;;;-145.67;100.00;66521.78;4968558;28;20093;-72
2022/06/25 04:24:17;;;;;;;24.20;11.65;;;;;;;-145.67;100.00;66521.78;4967512;28;20061;-72
2022/06/25 04:26:42;;;;;;;22.08;10.52;;;;;;;-145.67;100.00;66521.78;4967809;28;20398;-71
2022/06/25 04:29:11;;;;;;;20.65;10.05;;;;;;;-145.67;100.00;66521.78;4967149;28;20292;-71
2022/06/25 04:31:42;;;;;;;18.90;10.93;;;;;;;-145.67;100.00;66521.78;4967079;28;20399;-71
2022/06/25 04:34:07;;;;;;;19.30;9.48;;;;;;;-145.67;100.00;66521.78;4966868;28;20033;-72
2022/06/25 04:36:33;;;;;;;20.98;10.52;;;;;;;-145.67;100.00;66521.78;4982504;28;20103;-72
2022/06/25 04:39:01;;;;;;;17.00;10.02;;;;;;;-145.67;100.00;66521.78;4971991;28;20115;-72
2022/06/25 04:41:27;;;;;;;23.95;10.27;;;;;;;-145.67;100.00;66521.78;4966485;28;20437;-72
2022/06/25 04:43:55;;;;;;;23.20;10.82;;;;;;;-145.67;100.00;66521.78;4970817;28;20049;-72
2022/06/25 04:46:22;;;;;;;20.38;8.40;;;;;;;-145.67;100.00;66521.78;4969963;28;20343;-72
2022/06/25 04:48:48;;;;;;;17.92;7.97;;;;;;;-145.67;100.00;66521.78;4966557;28;20037;-71
2022/06/25 04:51:17;;;;;;;17.80;8.00;;;;;;;-145.67;100.00;66521.78;4964280;28;20137;-73
2022/06/25 04:53:55;;;;;;;19.10;8.30;;;;;;;-145.67;100.00;66521.78;4982409;28;20317;-72
2022/06/25 04:56:25;;;;;;;16.08;7.03;;;;;;;-145.67;100.00;66521.78;4979460;28;20091;-70
2022/06/25 04:58:51;;;;;;;15.45;7.40;;;;;;;-145.67;100.00;66521.78;4967561;28;20141;-72
2022/06/25 05:01:16;;;;;;;14.93;6.78;;;;;;;-145.67;100.00;66521.78;4959747;28;20283;-71
2022/06/25 05:03:49;;;;;;;16.25;7.65;;;;;;;-145.67;100.00;66521.78;4962569;28;20034;-72
2022/06/25 05:06:15;;;;;;;15.30;9.10;;;;;;;-145.67;100.00;66521.78;4961260;28;20161;-72
2022/06/25 05:08:42;;;;;;;14.75;8.77;;;;;;;-145.67;100.00;66521.78;4956563;28;20836;-72
2022/06/25 05:11:08;;;;;;;23.17;14.98;;;;;;;-145.67;100.00;66521.78;4973644;28;20282;-72
2022/06/25 05:13:34;;;;;;;19.08;11.57;;;;;;;-145.67;100.00;66521.78;4967845;28;20065;-72
2022/06/25 05:16:00;;;;;;;22.65;14.23;;;;;;;-145.67;100.00;66521.78;4966737;28;20037;-72
2022/06/25 05:18:26;;;;;;;26.02;15.45;;;;;;;-145.67;100.00;66521.78;4967036;28;20110;-72
2022/06/25 05:20:51;;;;;;;15.55;7.85;;;;;;;-145.67;100.00;66521.78;4958125;28;20140;-71
2022/06/25 05:23:17;;;;;;;8.73;3.85;;;;;;;-145.67;100.00;66521.78;4967180;28;20030;-71
2022/06/25 05:25:45;;;;;;;8.02;2.88;;;;;;;-145.67;100.00;66521.78;4961560;28;20064;-72
2022/06/25 05:28:11;;;;;;;8.68;3.63;;;;;;;-145.67;100.00;66521.78;4952161;28;20042;-71
2022/06/25 05:30:36;;;;;;;7.38;2.95;;;;;;;-145.67;100.00;66521.78;4960904;28;20042;-72
2022/06/25 05:33:02;;;;;;;11.77;7.38;;;;;;;-145.67;100.00;66521.78;4968283;28;20492;-72
2022/06/25 05:35:28;;;;;;;10.00;6.57;;;;;;;-145.67;100.00;66521.78;4965934;28;20038;-72
2022/06/25 05:37:53;;;;;;;8.25;2.70;;;;;;;-145.67;100.00;66521.78;4968026;28;20038;-72
2022/06/25 05:40:19;;;;;;;11.02;4.35;;;;;;;-145.67;100.00;66521.78;4974532;28;20296;-73
2022/06/25 05:42:45;;;;;;;9.35;5.95;;;;;;;-145.67;100.00;66521.78;4981248;28;20042;-71
2022/06/25 05:45:11;;;;;;;9.48;5.60;;;;;;;-145.67;100.00;66521.78;4967029;28;20150;-72
2022/06/25 05:47:37;;;;;;;8.02;3.33;;;;;;;-145.67;100.00;66521.78;4970999;28;20038;-72
2022/06/25 05:50:03;;;;;;;6.60;2.85;;;;;;;-145.67;100.00;66521.78;4980939;28;21797;-71
2022/06/25 05:52:29;;;;;;;8.23;3.10;;;;;;;-145.67;100.00;66521.78;4952230;28;20698;-72
2022/06/25 05:54:54;;;;;;;9.93;2.80;;;;;;;-145.67;100.00;66521.78;4967291;28;20041;-72
2022/06/25 05:57:20;;;;;;;6.15;2.35;;;;;;;-145.67;100.00;66521.78;4956287;28;20053;-72
2022/06/25 05:59:46;;;;;;;6.80;2.83;;;;;;;-145.67;100.00;66521.78;4958041;28;20042;-72
2022/06/25 06:02:13;;;;;;;8.68;5.05;;;;;;;-145.67;100.00;66521.78;4980237;28;20651;-72
2022/06/25 06:04:41;;;;;;;11.73;4.53;;;;;;;-145.67;100.00;66521.78;4966035;28;20038;-72
2022/06/25 06:07:07;;;;;;;8.77;3.53;;;;;;;-145.67;100.00;66521.78;4980495;28;20311;-72
2022/06/25 06:09:32;;;;;;;9.05;2.50;;;;;;;-145.67;100.00;66521.78;4967293;28;20042;-73
2022/06/25 06:11:59;;;;;;;6.25;2.65;;;;;;;-145.67;100.00;66521.78;4966981;28;20034;-72
2022/06/25 06:14:24;;;;;;;6.13;2.22;;;;;;;-145.67;100.00;66521.78;4968915;28;20152;-72
2022/06/25 06:16:52;;;;;;;7.32;2.38;;;;;;;-145.67;100.00;66521.78;4981099;28;20139;-72
2022/06/25 06:19:18;;;;;;;5.07;2.40;;;;;;;-145.67;100.00;66521.78;4965843;28;20041;-72
2022/06/25 06:21:44;;;;;;;8.40;2.47;;;;;;;-145.67;100.00;66521.78;4980718;28;20120;-71
2022/06/25 06:24:09;;;;;;;8.25;2.63;;;;;;;-145.67;100.00;66521.78;4980144;28;20040;-72
2022/06/25 06:26:35;;;;;;;8.88;2.53;;;;;;;-145.67;100.00;66521.78;4980368;28;20236;-72
2022/06/25 06:29:03;;;;;;;8.52;2.30;;;;;;;-145.67;100.00;66521.78;4967356;28;20113;-72
2022/06/25 06:31:29;;;;;;;7.38;2.45;;;;;;;-145.67;100.00;66521.78;4965186;28;20034;-72
2022/06/25 06:33:54;;;;;;;7.55;2.92;;;;;;;-145.67;100.00;66521.78;4967073;28;20257;-72
2022/06/25 06:36:20;;;;;;;7.30;2.40;;;;;;;-145.67;100.00;66521.78;4966623;28;20492;-72
2022/06/25 06:38:48;;;;;;;5.35;2.50;;;;;;;-145.67;100.00;66521.78;4967189;28;20381;-71
2022/06/25 06:41:14;;;;;;;6.13;2.35;;;;;;;-145.67;100.00;66521.78;4966079;28;20042;-72
2022/06/25 06:43:40;;;;;;;4.43;2.30;;;;;;;-145.67;100.00;66521.78;4968110;28;20287;-72
2022/06/25 06:46:05;;;;;;;6.38;2.60;;;;;;;-145.67;100.00;66521.78;4974917;28;20607;-72
2022/06/25 06:48:31;;;;;;;5.45;2.45;;;;;;;-145.67;100.00;66521.78;4966988;28;20594;-72
2022/06/25 06:50:59;;;;;;;3.90;2.30;;;;;;;-145.67;100.00;66521.78;4965668;28;20372;-72
2022/06/25 06:53:24;;;;;;;5.88;2.55;;;;;;;-145.67;100.00;66521.78;4967428;28;20145;-72
2022/06/25 06:55:50;;;;;;;5.85;2.00;;;;;;;-145.67;100.00;66521.78;4981522;28;20048;-72
2022/06/25 06:58:19;;;;;;;5.55;2.22;;;;;;;-145.67;100.00;66521.78;4966887;28;20487;-73
2022/06/25 07:00:44;;;;;;;4.38;1.80;;;;;;;-145.67;100.00;66521.78;4967540;28;20053;-72
2022/06/25 07:03:10;;;;;;;8.15;1.95;;;;;;;-145.67;100.00;66521.78;4973337;28;20304;-73
2022/06/25 07:05:35;;;;;;;6.35;1.85;;;;;;;-145.67;100.00;66521.78;4976086;28;20065;-73
2022/06/25 07:08:01;;;;;;;7.22;1.60;;;;;;;-145.67;100.00;66521.78;4970015;28;20060;-71
2022/06/25 07:10:27;;;;;;;7.05;1.80;;;;;;;-145.67;100.00;66521.78;4983737;28;20424;-72
2022/06/25 07:12:54;;;;;;;7.53;1.60;;;;;;;-145.67;100.00;66521.78;4975791;28;20030;-74
2022/06/25 07:15:20;;;;;;;7.28;1.30;;;;;;;-145.67;100.00;66521.78;4969111;28;20350;-72
2022/06/25 07:17:48;;;;;;;6.75;1.38;;;;;;;-145.67;100.00;66521.78;4966861;28;20064;-74
2022/06/25 07:20:13;;;;;;;4.10;1.05;;;;;;;-145.67;100.00;66521.78;4975035;28;20152;-72
2022/06/25 07:22:39;;;;;;;6.47;1.15;;;;;;;-145.67;100.00;66521.78;4972073;28;20076;-70
2022/06/25 07:25:08;;;;;;;7.10;1.73;;;;;;;-145.67;100.00;66521.78;4982820;28;20687;-71
2022/06/25 07:27:33;;;;;;;5.25;1.13;;;;;;;-145.67;100.00;66521.78;4970007;28;20030;-72
2022/06/25 07:29:59;;;;;;;3.53;1.00;;;;;;;-145.67;100.00;66521.78;4984086;28;20259;-71
2022/06/25 07:32:25;;;;;;;2.92;1.23;;;;;;;-145.67;100.00;66521.78;4964992;28;20127;-73
2022/06/25 07:34:52;;;;;;;9.52;1.40;;;;;;;-145.67;100.00;66521.78;4969419;28;20080;-73
2022/06/25 07:37:18;;;;;;;5.05;1.20;;;;;;;-145.67;100.00;66521.78;4969322;28;20580;-72
2022/06/25 07:39:43;;;;;;;6.70;1.60;;;;;;;-145.67;100.00;66521.78;4972042;28;20048;-71
2022/06/25 07:42:11;;;;;;;6.30;1.67;;;;;;;-145.67;100.00;66521.78;4970102;28;20154;-70
2022/06/25 07:44:36;;;;;;;8.13;1.48;;;;;;;-145.67;100.00;66521.78;4969148;28;20033;-71
2022/06/25 07:47:03;;;;;;;8.85;1.50;;;;;;;-145.67;100.00;66521.78;4982314;28;20187;-71
2022/06/25 07:49:28;;;;;;;7.57;1.90;;;;;;;-145.67;100.00;66521.78;4969474;28;20042;-72
2022/06/25 07:51:56;;;;;;;9.40;1.70;;;;;;;-145.67;100.00;66521.78;4970016;28;20038;-72
2022/06/25 07:54:24;;;;;;;8.68;1.80;;;;;;;-145.67;100.00;66521.78;4969955;28;20634;-71
2022/06/25 07:56:49;;;;;;;8.80;1.92;;;;;;;-145.67;100.00;66521.78;4969479;28;20069;-70
2022/06/25 07:59:15;;;;;;;9.80;1.90;;;;;;;-145.67;100.00;66521.78;4974967;28;20026;-72
2022/06/25 08:01:41;;;;;;;12.18;1.70;;;;;;;-145.67;100.00;66521.78;4969520;28;20566;-70
2022/06/25 08:04:06;;;;;;;8.05;1.80;;;;;;;-145.67;100.00;66521.78;4969740;28;20113;-71
2022/06/25 08:06:34;;;;;;;13.35;2.55;;;;;;;-145.67;100.00;66521.78;4983128;28;20029;-72
2022/06/25 08:09:01;;;;;;;12.82;2.25;;;;;;;-145.67;100.00;66521.78;4971005;28;20156;-72
2022/06/25 08:11:26;;;;;;;9.52;2.50;;;;;;;-145.67;100.00;66521.78;4975493;28;20038;-73
2022/06/25 08:13:52;;;;;;;12.43;2.13;;;;;;;-145.67;100.00;66521.78;4967532;28;20142;-71
2022/06/25 08:16:18;;;;;;;12.18;2.15;;;;;;;-145.67;100.00;66521.78;4972553;28;20030;-71
2022/06/25 08:18:43;;;;;;;11.88;2.10;;;;;;;-145.67;100.00;66521.78;4981960;28;20465;-71
2022/06/25 08:21:09;;;;;;;11.48;2.08;;;;;;;-145.67;100.00;66521.78;4967698;28;20129;-71
2022/06/25 08:23:35;;;;;;;10.52;2.20;;;;;;;-145.67;100.00;66521.78;4983345;28;20889;-72
2022/06/25 08:26:00;;;;;;;13.13;2.72;;;;;;;-145.67;100.00;66521.78;4969933;28;20038;-72
2022/06/25 08:28:30;;;;;;;10.75;2.50;;;;;;;-145.67;100.00;66521.78;4968741;28;20034;-71
2022/06/25 08:30:56;;;;;;;14.32;2.28;;;;;;;-145.67;100.00;66521.78;4969690;28;20116;-71
2022/06/25 08:33:22;;;;;;;11.13;2.10;;;;;;;-145.67;100.00;66521.78;4960999;28;20707;-71
2022/06/25 08:35:47;;;;;;;11.18;1.90;;;;;;;-145.67;100.00;66521.78;4968394;28;20380;-70
2022/06/25 08:38:13;;;;;;;11.38;2.30;;;;;;;-145.67;100.00;66521.78;4982011;28;20204;-72
2022/06/25 08:40:38;;;;;;;14.18;2.33;;;;;;;-145.67;100.00;66521.78;4968614;28;20046;-72
2022/06/25 08:43:05;;;;;;;10.30;1.90;;;;;;;-145.67;100.00;66521.78;4968052;28;20049;-71
2022/06/25 08:45:31;;;;;;;12.00;2.50;;;;;;;-145.67;100.00;66521.78;4967053;28;20288;-71
2022/06/25 08:48:00;;;;;;;11.65;2.45;;;;;;;-145.67;100.00;66521.78;4956209;28;20069;-71
2022/06/25 08:50:26;;;;;;;11.77;2.53;;;;;;;-145.67;100.00;66521.78;4966868;28;20376;-70
2022/06/25 08:52:55;;;;;;;9.85;2.60;;;;;;;-145.67;100.00;66521.78;4968532;28;20545;-70
2022/06/25 08:55:41;;;;;;;9.50;2.40;;;;;;;-145.67;100.00;66521.78;4966507;28;20026;-72
2022/06/25 08:58:07;;;;;;;15.80;2.60;;;;;;;-145.67;100.00;66521.78;4980286;28;20453;-71
2022/06/25 09:00:35;;;;;;;13.38;2.30;;;;;;;-145.67;100.00;66521.78;4969648;28;20045;-72
2022/06/25 09:03:04;;;;;;;11.63;2.35;;;;;;;-145.67;100.00;66521.78;4966680;28;20824;-71
2022/06/25 09:05:34;;;;;;;14.27;2.70;;;;;;;-145.67;100.00;66521.78;4979971;28;20530;-71
2022/06/25 09:08:01;;;;;;;12.00;2.50;;;;;;;-145.67;100.00;66521.78;4965788;28;20330;-72
2022/06/25 09:10:28;;;;;;;9.75;2.65;;;;;;;-145.67;100.00;66521.78;4972808;28;20353;-72
2022/06/25 09:12:59;;;;;;;14.27;2.70;;;;;;;-145.67;100.00;66521.78;4965503;28;20222;-71
2022/06/25 09:15:35;;;;;;;12.65;2.45;;;;;;;-145.67;100.00;66521.78;4965664;28;20675;-72
2022/06/25 09:18:12;;;;;;;13.95;2.55;;;;;;;-145.67;100.00;66521.78;4977378;28;20540;-70
2022/06/25 09:21:07;;;;;;;14.55;2.50;;;;;;;-145.67;100.00;66521.78;4967563;28;20465;-70
2022/06/25 09:23:35;;;;;;;12.55;2.20;;;;;;;-145.67;100.00;66521.78;4971885;28;20577;-71
2022/06/25 09:26:09;;;;;;;16.38;2.50;;;;;;;-145.67;100.00;66521.78;4966924;28;20413;-72
2022/06/25 09:28:42;;;;;;;12.38;2.55;;;;;;;-145.67;100.00;66521.78;4966310;28;20497;-72
2022/06/25 09:31:08;;;;;;;14.52;2.97;;;;;;;-145.67;100.00;66521.78;4971806;28;20156;-71
2022/06/25 09:33:37;;;;;;;14.35;2.75;;;;;;;-145.67;100.00;66521.78;4967678;28;20033;-71
2022/06/25 09:36:03;;;;;;;12.07;2.20;;;;;;;-145.67;100.00;66521.78;4970941;28;20561;-72
2022/06/25 09:38:31;;;;;;;15.43;2.70;;;;;;;-145.67;100.00;66521.78;4967245;28;20650;-73
2022/06/25 09:40:59;;;;;;;15.48;2.78;;;;;;;-145.67;100.00;66521.78;4967407;28;20037;-71
2022/06/25 09:43:34;;;;;;;16.10;2.80;;;;;;;-145.67;100.00;66521.78;4964410;28;20046;-72
2022/06/25 09:46:05;;;;;;;18.33;3.00;;;;;;;-145.67;100.00;66521.78;4975574;28;20454;-72
2022/06/25 09:48:33;;;;;;;14.27;2.95;;;;;;;-145.67;100.00;66521.78;4964163;28;20497;-72
2022/06/25 09:51:23;;;;;;;11.40;2.60;;;;;;;-145.67;100.00;66521.78;4966502;28;20109;-72
2022/06/25 09:53:56;;;;;;;12.13;2.30;;;;;;;-145.67;100.00;66521.78;4981707;28;20041;-71
2022/06/25 09:56:27;;;;;;;14.65;2.72;;;;;;;-145.67;100.00;66521.78;4981146;28;20571;-71
2022/06/25 09:58:53;;;;;;;13.18;2.40;;;;;;;-145.67;100.00;66521.78;4979146;28;20047;-72
2022/06/25 10:01:20;;;;;;;14.32;2.40;;;;;;;-145.67;100.00;66521.78;4967698;28;20271;-72
2022/06/25 10:03:51;;;;;;;13.55;2.50;;;;;;;-145.67;100.00;66521.78;4963751;28;20037;-72
2022/06/25 10:06:18;;;;;;;12.90;2.90;;;;;;;-145.67;100.00;66521.78;4966532;28;20489;-72
2022/06/25 10:08:51;;;;;;;15.20;2.67;;;;;;;-145.67;100.00;66521.78;4967126;28;20679;-71
2022/06/25 10:11:23;;;;;;;16.13;2.75;;;;;;;-145.67;100.00;66521.78;4966555;28;20338;-72
2022/06/25 10:13:51;;;;;;;18.83;3.20;;;;;;;-145.67;100.00;66521.78;4964134;28;20483;-73
2022/06/25 10:16:21;;;;;;;13.43;2.80;;;;;;;-145.67;100.00;66521.78;4963499;28;20034;-72
2022/06/25 10:18:49;;;;;;;21.33;3.42;;;;;;;-145.67;100.00;66521.78;4962950;28;20033;-72
2022/06/25 10:21:19;;;;;;;12.35;2.55;;;;;;;-145.67;100.00;66521.78;4965590;28;20563;-72
2022/06/25 10:23:51;;;;;;;14.90;2.53;;;;;;;-145.67;100.00;66521.78;4964151;28;20546;-74
2022/06/25 10:26:18;;;;;;;15.07;2.85;;;;;;;-145.67;100.00;66521.78;4964618;28;20047;-73
2022/06/25 10:28:47;;;;;;;14.70;3.05;;;;;;;-145.67;100.00;66521.78;4962724;28;20150;-73
2022/06/25 10:31:15;;;;;;;15.43;2.60;;;;;;;-145.67;100.00;66521.78;4965423;28;20489;-71
2022/06/25 10:33:55;;;;;;;16.27;2.90;;;;;;;-145.67;100.00;66521.78;4980822;28;20037;-70
2022/06/25 10:36:43;;;;;;;13.02;2.63;;;;;;;-145.67;100.00;66521.78;4978893;28;20038;-69
2022/06/25 10:39:30;;;;;;;13.43;2.63;;;;;;;-145.67;100.00;66521.78;4969200;28;20509;-70
2022/06/25 10:45:01;;;;;;;13.20;2.35;;;;;;;-145.67;100.00;66521.78;4969921;28;20056;-72
2022/06/25 10:47:47;;;;;;;19.83;2.97;;;;;;;-145.67;100.00;66521.78;4966876;28;20206;-72
2022/06/25 10:50:22;;;;;;;15.30;2.50;;;;;;;-145.67;100.00;66521.78;4982670;28;20124;-72
2022/06/25 10:53:05;;;;;;;12.07;2.30;;;;;;;-145.67;100.00;66521.78;4971460;28;20798;-71
2022/06/25 10:55:40;;;;;;;9.93;2.20;;;;;;;-145.67;100.00;66521.78;4970168;28;20033;-71
2022/06/25 10:58:43;;;;;;;10.60;1.90;;;;;;;-145.67;100.00;66521.78;4970656;28;20041;-70
2022/06/25 11:01:22;;;;;;;10.05;2.60;;;;;;;-145.67;100.00;66521.78;4965446;28;20293;-70
2022/06/25 11:03:52;;;;;;;12.73;2.20;;;;;;;-145.67;100.00;66521.78;4971604;28;20667;-69
2022/06/25 11:06:21;;;;;;;9.02;1.90;;;;;;;-145.67;100.00;66521.78;4967368;28;20589;-72
2022/06/25 11:08:48;;;;;;;12.38;1.80;;;;;;;-145.67;100.00;66521.78;4959534;28;20042;-71
2022/06/25 11:11:26;;;;;;;8.73;1.65;;;;;;;-145.67;100.00;66521.78;4969253;28;20359;-70